createdAt,value
2017-04-14T13:25:11.555Z,24.90
2017-04-14T13:26:10.550Z,25.50
2017-04-14T13:27:09.595Z,25.70
2017-04-14T13:28:08.581Z,26.10
2017-04-14T13:29:07.595Z,26.60
2017-04-14T13:30:06.595Z,27.30
2017-04-14T13:31:05.580Z,27.50
2017-04-14T13:32:04.598Z,27.50
2017-04-14T13:33:03.648Z,26.80
2017-04-14T13:34:02.680Z,26.00
2017-04-14T13:35:01.683Z,24.90
2017-04-14T13:36:00.678Z,23.80
2017-04-14T13:37:00.423Z,23.40
2017-04-14T13:37:59.415Z,23.70
2017-04-14T13:38:58.428Z,24.20
2017-04-14T13:39:57.437Z,24.00
2017-04-14T13:40:56.428Z,24.50
2017-04-14T13:41:55.425Z,24.70
2017-04-14T13:42:54.406Z,24.70
2017-04-14T13:43:54.191Z,25.20
2017-04-14T13:44:53.187Z,25.20
2017-04-14T13:45:52.256Z,25.30
2017-04-14T13:46:51.254Z,25.80
2017-04-14T13:47:51.633Z,26.10
2017-04-14T13:48:50.766Z,27.00
2017-04-14T13:49:49.774Z,27.20
2017-04-14T13:50:48.808Z,27.60
2017-04-14T13:51:47.837Z,27.90
2017-04-14T13:52:46.862Z,28.60
2017-04-14T13:53:45.901Z,29.10
2017-04-14T13:54:44.982Z,29.00
2017-04-14T13:55:44.057Z,29.10
2017-04-14T13:56:43.075Z,29.40
2017-04-14T13:57:42.097Z,29.70
2017-04-14T13:58:41.123Z,29.90
2017-04-14T13:59:40.095Z,30.10
2017-04-14T14:00:39.134Z,30.00
2017-04-14T14:01:38.126Z,30.70
2017-04-14T14:02:37.113Z,30.50
2017-04-14T14:03:36.089Z,30.60
2017-04-14T14:04:36.544Z,31.20
2017-04-14T14:05:35.657Z,31.10
2017-04-14T14:06:34.697Z,31.50
2017-04-14T14:07:34.695Z,31.80
2017-04-14T14:08:34.574Z,32.10
2017-04-14T14:09:33.710Z,32.50
2017-04-14T14:10:32.883Z,32.60
2017-04-14T14:11:32.712Z,32.80
2017-04-14T14:12:31.759Z,32.30
2017-04-14T14:13:30.883Z,32.40
2017-04-14T14:14:29.917Z,32.60
2017-04-14T14:15:28.970Z,32.50
2017-04-14T14:16:28.033Z,32.50
2017-04-14T14:17:27.073Z,32.90
2017-04-14T14:18:27.477Z,33.20
2017-04-14T14:19:26.562Z,33.00
2017-04-14T14:20:25.605Z,32.70
2017-04-14T14:21:24.703Z,32.80
2017-04-14T14:22:23.709Z,33.00
2017-04-14T14:23:22.726Z,32.40
2017-04-14T14:24:21.701Z,31.00
2017-04-14T14:25:20.921Z,29.70
2017-04-14T14:26:19.967Z,28.10
2017-04-14T14:27:18.982Z,26.20
2017-04-14T14:28:18.790Z,24.80
2017-04-14T14:29:17.809Z,23.70
2017-04-14T14:30:16.844Z,22.90
2017-04-14T14:31:15.896Z,22.80
2017-04-14T14:32:14.970Z,22.10
2017-04-14T14:33:13.960Z,22.10
2017-04-14T14:34:13.208Z,21.80
2017-04-14T14:35:12.238Z,21.90
2017-04-14T14:36:11.240Z,21.70
2017-04-14T14:37:10.316Z,22.10
2017-04-14T14:38:09.364Z,22.50
2017-04-14T14:39:08.473Z,22.60
2017-04-14T14:40:07.569Z,22.00
2017-04-14T14:41:06.600Z,21.40
2017-04-14T14:42:05.691Z,20.80
2017-04-14T14:43:04.749Z,20.70
2017-04-14T14:44:03.823Z,20.80
2017-04-14T14:45:02.876Z,21.30
2017-04-14T14:46:01.885Z,21.50
2017-04-14T14:47:00.899Z,22.20
2017-04-14T14:48:01.541Z,22.80
2017-04-14T14:49:00.572Z,22.20
2017-04-14T14:49:59.602Z,21.60
2017-04-14T14:50:58.640Z,21.60
2017-04-14T14:51:57.623Z,20.20
2017-04-14T14:52:56.707Z,19.20
2017-04-14T14:53:55.691Z,18.00
2017-04-14T14:54:54.694Z,17.70
2017-04-14T14:55:54.456Z,18.20
2017-04-14T14:56:53.452Z,18.40
2017-04-14T14:57:52.439Z,18.00
2017-04-14T14:58:51.440Z,17.90
2017-04-14T14:59:50.420Z,18.00
2017-04-14T15:00:49.451Z,18.60
2017-04-14T15:01:48.533Z,19.00
2017-04-14T15:02:47.555Z,19.70
2017-04-14T15:03:46.537Z,20.60
2017-04-14T15:04:45.581Z,21.20
2017-04-14T15:05:44.602Z,22.20
2017-04-14T15:06:43.586Z,22.90
2017-04-14T15:07:42.609Z,23.90
2017-04-14T15:08:42.339Z,25.00
2017-04-14T15:09:41.323Z,25.80
2017-04-14T15:10:40.335Z,26.30
2017-04-14T15:11:39.329Z,27.00
2017-04-14T15:12:38.342Z,27.60
2017-04-14T15:13:37.350Z,28.20
2017-04-14T15:14:36.461Z,29.00
2017-04-14T15:15:35.438Z,29.50
2017-04-14T15:16:34.514Z,29.90
2017-04-14T15:17:33.533Z,30.20
2017-04-14T15:18:32.561Z,30.50
2017-04-14T15:19:32.581Z,30.70
2017-04-14T15:20:31.611Z,30.60
2017-04-14T15:21:30.618Z,31.00
2017-04-14T15:22:29.629Z,30.90
2017-04-14T15:23:28.632Z,31.00
2017-04-14T15:24:28.382Z,31.40
2017-04-14T15:25:27.547Z,31.60
2017-04-14T15:26:26.536Z,31.90
2017-04-14T15:27:25.527Z,31.90
2017-04-14T15:28:24.664Z,32.30
2017-04-14T15:29:23.665Z,32.90
2017-04-14T15:30:22.675Z,32.80
2017-04-14T15:31:21.697Z,32.70
2017-04-14T15:32:20.703Z,32.90
2017-04-14T15:33:19.675Z,33.10
2017-04-14T15:34:18.699Z,33.10
2017-04-14T15:35:17.686Z,33.20
2017-04-14T15:36:16.676Z,33.30
2017-04-14T15:37:15.736Z,33.60
2017-04-14T15:38:14.968Z,33.40
2017-04-14T15:39:13.973Z,33.60
2017-04-14T15:40:13.043Z,33.70
2017-04-14T15:41:12.818Z,33.10
2017-04-14T15:42:11.862Z,33.10
2017-04-14T15:43:10.909Z,33.20
2017-04-14T15:44:09.925Z,33.10
2017-04-14T15:45:08.962Z,32.90
2017-04-14T15:46:07.994Z,32.60
2017-04-14T15:47:07.041Z,32.40
2017-04-14T15:48:06.815Z,32.90
2017-04-14T15:49:05.901Z,32.70
2017-04-14T15:50:05.730Z,32.30
2017-04-14T15:51:04.789Z,32.50
2017-04-14T15:52:03.840Z,32.50
2017-04-14T15:53:02.926Z,32.40
2017-04-14T15:54:02.058Z,32.20
2017-04-14T15:55:01.221Z,32.20
2017-04-14T15:56:00.253Z,32.30
2017-04-14T15:57:00.110Z,31.70
2017-04-14T15:57:59.179Z,31.70
2017-04-14T15:58:58.362Z,31.80
2017-04-14T15:59:57.419Z,31.90
2017-04-14T16:00:56.524Z,32.10
2017-04-14T16:01:55.730Z,32.00
2017-04-14T16:02:54.762Z,32.40
2017-04-14T16:03:53.759Z,32.50
2017-04-14T16:04:53.499Z,32.70
2017-04-14T16:05:52.484Z,32.60
2017-04-14T16:06:51.475Z,32.90
2017-04-14T16:07:50.493Z,33.30
2017-04-14T16:08:50.650Z,33.50
2017-04-14T16:09:49.686Z,33.70
2017-04-14T16:10:48.880Z,33.80
2017-04-14T16:11:47.940Z,34.00
2017-04-14T16:12:46.978Z,34.00
2017-04-14T16:13:45.990Z,34.20
2017-04-14T16:14:44.983Z,34.30
2017-04-14T16:15:44.028Z,34.80
2017-04-14T16:16:43.018Z,35.00
2017-04-14T16:17:42.014Z,35.20
2017-04-14T16:18:41.058Z,34.70
2017-04-14T16:19:40.786Z,34.80
2017-04-14T16:20:39.837Z,35.10
2017-04-14T16:21:38.860Z,35.20
2017-04-14T16:22:37.884Z,35.10
2017-04-14T16:23:36.903Z,35.20
2017-04-14T16:24:35.886Z,35.40
2017-04-14T16:25:35.761Z,35.30
2017-04-14T16:26:34.755Z,35.70
2017-04-14T16:27:33.785Z,35.30
2017-04-14T16:28:32.775Z,34.90
2017-04-14T16:29:31.800Z,35.30
2017-04-14T16:30:30.851Z,35.30
2017-04-14T16:31:29.852Z,35.50
2017-04-14T16:32:28.843Z,35.80
2017-04-14T16:33:27.906Z,36.20
2017-04-14T16:34:26.939Z,35.60
2017-04-14T16:35:26.762Z,35.90
2017-04-14T16:36:25.797Z,36.10
2017-04-14T16:37:24.844Z,36.20
2017-04-14T16:38:23.883Z,36.50
2017-04-14T16:39:23.949Z,36.80
2017-04-14T16:40:22.959Z,36.70
2017-04-14T16:41:21.971Z,36.80
2017-04-14T16:42:21.730Z,37.20
2017-04-14T16:43:20.729Z,37.20
2017-04-14T16:44:19.724Z,37.30
2017-04-14T16:45:22.059Z,37.60
2017-04-14T16:46:21.168Z,37.50
2017-04-14T16:47:20.188Z,38.00
2017-04-14T16:48:19.207Z,38.00
2017-04-14T16:49:18.209Z,38.60
2017-04-14T16:50:17.232Z,38.40
2017-04-14T16:51:16.273Z,38.30
2017-04-14T16:52:17.913Z,38.90
2017-04-14T16:53:17.064Z,38.70
2017-04-14T16:54:16.082Z,38.40
2017-04-14T16:55:15.098Z,38.40
2017-04-14T16:56:17.369Z,38.60
2017-04-14T16:57:16.545Z,38.40
2017-04-14T16:58:16.291Z,38.60
2017-04-14T16:59:16.048Z,39.30
2017-04-14T17:00:15.125Z,38.70
2017-04-14T17:01:14.554Z,39.10
2017-04-14T17:02:14.189Z,38.90
2017-04-14T17:03:13.350Z,38.90
2017-04-14T17:04:13.115Z,39.00
2017-04-14T17:05:16.641Z,38.70
2017-04-14T17:06:18.340Z,38.90
2017-04-14T17:07:18.220Z,38.70
2017-04-14T17:08:17.248Z,38.80
2017-04-14T17:09:16.273Z,39.00
2017-04-14T17:10:15.284Z,39.10
2017-04-14T17:11:14.299Z,38.90
2017-04-14T17:12:13.317Z,39.10
2017-04-14T17:13:13.137Z,39.00
2017-04-14T17:14:12.223Z,39.00
2017-04-14T17:15:12.185Z,39.50
2017-04-14T17:16:11.316Z,39.60
2017-04-14T17:17:10.673Z,39.30
2017-04-14T17:18:09.969Z,39.50
2017-04-14T17:19:09.007Z,39.60
2017-04-14T17:20:08.036Z,39.60
2017-04-14T17:21:07.047Z,39.60
2017-04-14T17:22:06.089Z,40.50
2017-04-14T17:23:05.117Z,40.30
2017-04-14T17:24:04.177Z,40.70
2017-04-14T17:25:03.229Z,39.70
2017-04-14T17:26:02.236Z,39.80
2017-04-14T17:27:01.232Z,40.00
2017-04-14T17:28:00.304Z,40.20
2017-04-14T17:28:59.302Z,40.00
2017-04-14T17:29:58.305Z,40.30
2017-04-14T17:30:57.338Z,40.20
2017-04-14T17:31:59.530Z,39.90
2017-04-14T17:32:59.296Z,40.10
2017-04-14T17:33:58.314Z,39.60
2017-04-14T17:34:58.086Z,39.70
2017-04-14T17:35:58.359Z,39.10
2017-04-14T17:37:00.385Z,39.10
2017-04-14T17:38:04.647Z,39.00
2017-04-14T17:39:04.264Z,39.10
2017-04-14T17:40:03.388Z,38.80
2017-04-14T17:41:02.436Z,38.70
2017-04-14T17:42:01.474Z,38.70
2017-04-14T17:43:00.537Z,38.90
2017-04-14T17:43:59.557Z,39.00
2017-04-14T17:44:58.590Z,39.40
2017-04-14T17:45:58.350Z,40.00
2017-04-14T17:46:57.383Z,39.30
2017-04-14T17:47:57.129Z,39.40
2017-04-14T17:48:56.208Z,39.40
2017-04-14T17:49:55.231Z,39.50
2017-04-14T17:50:54.302Z,39.60
2017-04-14T17:51:53.338Z,39.80
2017-04-14T17:52:52.363Z,39.80
2017-04-14T17:53:51.389Z,40.10
2017-04-14T17:54:51.156Z,40.10
2017-04-14T17:55:50.156Z,40.30
2017-04-14T17:56:49.279Z,40.30
2017-04-14T17:57:48.371Z,40.30
2017-04-14T17:58:47.434Z,40.30
2017-04-14T17:59:47.237Z,40.50
2017-04-14T18:00:46.287Z,40.50
2017-04-14T18:01:45.318Z,40.80
2017-04-14T18:02:44.347Z,41.10
2017-04-14T18:03:43.386Z,40.90
2017-04-14T18:04:42.439Z,41.00
2017-04-14T18:05:41.506Z,40.90
2017-04-14T18:06:40.540Z,41.20
2017-04-14T18:07:39.600Z,41.20
2017-04-14T18:08:39.387Z,41.30
2017-04-14T18:09:38.423Z,41.50
2017-04-14T18:10:37.507Z,41.50
2017-04-14T18:11:36.542Z,41.60
2017-04-14T18:12:35.572Z,41.80
2017-04-14T18:13:34.603Z,41.90
2017-04-14T18:14:33.649Z,41.90
2017-04-14T18:15:32.671Z,42.10
2017-04-14T18:16:31.701Z,42.30
2017-04-14T18:17:33.744Z,42.30
2017-04-14T18:18:32.922Z,42.50
2017-04-14T18:19:33.973Z,42.50
2017-04-14T18:20:33.029Z,42.70
2017-04-14T18:21:32.075Z,42.90
2017-04-14T18:22:31.092Z,43.10
2017-04-14T18:23:30.155Z,43.10
2017-04-14T18:24:29.906Z,43.10
2017-04-14T18:25:28.955Z,43.30
2017-04-14T18:26:27.982Z,43.30
2017-04-14T18:27:27.030Z,43.40
2017-04-14T18:28:26.051Z,43.50
2017-04-14T18:29:25.074Z,43.80
2017-04-14T18:30:24.094Z,43.80
2017-04-14T18:31:23.128Z,43.80
2017-04-14T18:32:22.153Z,43.70
2017-04-14T18:33:21.210Z,43.80
2017-04-14T18:34:20.234Z,43.90
2017-04-14T18:35:19.279Z,44.00
2017-04-14T18:36:18.360Z,44.40
2017-04-14T18:37:17.388Z,44.60
2017-04-14T18:38:17.147Z,44.90
2017-04-14T18:39:16.186Z,44.70
2017-04-14T18:40:15.244Z,45.00
2017-04-14T18:41:14.238Z,45.00
2017-04-14T18:42:13.284Z,44.80
2017-04-14T18:43:12.289Z,44.60
2017-04-14T18:44:11.321Z,44.70
2017-04-14T18:45:10.405Z,44.90
2017-04-14T18:46:09.426Z,45.00
2017-04-14T18:47:08.445Z,45.10
2017-04-14T18:48:07.457Z,45.20
2017-04-14T18:49:06.478Z,45.30
2017-04-14T18:50:05.510Z,45.30
2017-04-14T18:51:04.587Z,45.60
2017-04-14T18:52:04.344Z,45.90
2017-04-14T18:53:03.378Z,46.10
2017-04-14T18:54:03.125Z,45.90
2017-04-14T18:55:02.145Z,46.30
2017-04-14T18:56:01.183Z,45.90
2017-04-14T18:57:00.228Z,46.10
2017-04-14T18:57:59.268Z,46.40
2017-04-14T18:58:58.294Z,46.70
2017-04-14T18:59:59.071Z,46.20
2017-04-14T19:00:58.101Z,46.60
2017-04-14T19:02:57.292Z,46.70
2017-04-14T19:03:56.370Z,46.70
2017-04-14T19:04:55.386Z,46.90
2017-04-14T19:05:54.468Z,46.80
2017-04-14T19:06:53.499Z,47.40
2017-04-14T19:07:52.505Z,47.10
2017-04-14T19:08:51.590Z,47.00
2017-04-14T19:09:50.640Z,47.20
2017-04-14T19:10:49.645Z,47.20
2017-04-14T19:11:48.642Z,47.20
2017-04-14T19:12:47.652Z,47.40
2017-04-14T19:13:46.647Z,47.30
2017-04-14T19:14:45.689Z,47.60
2017-04-14T19:15:44.689Z,47.60
2017-04-14T19:16:44.455Z,47.60
2017-04-14T19:17:43.495Z,47.90
2017-04-14T19:18:42.526Z,47.50
2017-04-14T19:19:41.554Z,47.60
2017-04-14T19:20:40.614Z,47.60
2017-04-14T19:21:39.633Z,47.50
2017-04-14T19:22:38.645Z,47.90
2017-04-14T19:23:37.670Z,47.90
2017-04-14T19:24:36.714Z,47.90
2017-04-14T19:25:35.782Z,48.10
2017-04-14T19:26:34.818Z,48.00
2017-04-14T19:27:33.844Z,48.10
2017-04-14T19:28:32.872Z,48.30
2017-04-14T19:29:31.890Z,48.40
2017-04-14T19:30:31.657Z,48.60
2017-04-14T19:31:30.688Z,48.50
2017-04-14T19:32:29.745Z,48.70
2017-04-14T19:33:28.770Z,48.50
2017-04-14T19:34:27.789Z,48.60
2017-04-14T19:35:27.595Z,48.80
2017-04-14T19:36:26.627Z,48.80
2017-04-14T19:37:25.663Z,49.10
2017-04-14T19:38:24.693Z,49.60
2017-04-14T19:39:23.701Z,49.30
2017-04-14T19:40:22.722Z,49.30
2017-04-14T19:41:21.740Z,49.30
2017-04-14T19:42:21.489Z,49.50
2017-04-14T19:43:20.511Z,49.50
2017-04-14T19:44:19.529Z,49.50
2017-04-14T19:45:18.555Z,49.70
2017-04-14T19:46:17.602Z,49.80
2017-04-14T19:47:16.608Z,49.90
2017-04-14T19:48:17.230Z,50.10
2017-04-14T19:49:16.315Z,49.90
2017-04-14T19:50:15.399Z,50.20
2017-04-14T19:51:14.469Z,50.20
2017-04-14T19:52:13.790Z,49.90
2017-04-14T19:53:12.830Z,50.20
2017-04-14T19:54:11.860Z,50.50
2017-04-14T19:55:10.865Z,50.60
2017-04-14T19:56:09.909Z,50.80
2017-04-14T19:57:08.929Z,50.70
2017-04-14T19:58:07.948Z,50.50
2017-04-14T19:59:06.992Z,50.60
2017-04-14T20:00:06.031Z,50.90
2017-04-14T20:01:05.103Z,50.90
2017-04-14T20:02:04.158Z,50.90
2017-04-14T20:03:03.181Z,50.90
2017-04-14T20:04:02.206Z,50.80
2017-04-14T20:05:01.245Z,50.80
2017-04-14T20:06:00.297Z,50.90
2017-04-14T20:06:59.430Z,50.90
2017-04-14T20:07:58.479Z,50.90
2017-04-14T20:08:57.517Z,50.90
2017-04-14T20:09:56.553Z,51.00
2017-04-14T20:10:55.576Z,51.60
2017-04-14T20:11:54.630Z,51.00
2017-04-14T20:12:53.699Z,51.10
2017-04-14T20:13:58.524Z,51.20
2017-04-14T20:14:57.573Z,51.40
2017-04-14T20:15:56.618Z,51.50
2017-04-14T20:16:55.675Z,51.30
2017-04-14T20:17:55.452Z,51.40
2017-04-14T20:18:54.471Z,51.40
2017-04-14T20:19:53.505Z,51.40
2017-04-14T20:20:52.554Z,51.70
2017-04-14T20:21:51.597Z,51.60
2017-04-14T20:22:50.615Z,51.60
2017-04-14T20:23:49.629Z,51.80
2017-04-14T20:24:48.641Z,51.70
2017-04-14T20:25:47.670Z,51.70
2017-04-14T20:26:46.702Z,51.70
2017-04-14T20:27:45.774Z,51.90
2017-04-14T20:28:44.818Z,52.00
2017-04-14T20:29:43.855Z,52.10
2017-04-14T20:30:42.913Z,52.10
2017-04-14T20:31:42.018Z,52.30
2017-04-14T20:32:41.062Z,52.20
2017-04-14T20:33:40.101Z,52.30
2017-04-14T20:34:39.126Z,52.30
2017-04-14T20:35:38.111Z,52.60
2017-04-14T20:36:37.097Z,52.80
2017-04-14T20:37:36.137Z,52.80
2017-04-14T20:38:35.439Z,52.80
2017-04-14T20:39:34.435Z,52.80
2017-04-14T20:40:33.755Z,52.80
2017-04-14T20:41:32.760Z,52.90
2017-04-14T20:42:32.500Z,52.90
2017-04-14T20:43:31.552Z,53.20
2017-04-14T20:44:30.734Z,53.40
2017-04-14T20:45:29.725Z,53.50
2017-04-14T20:46:28.726Z,53.70
2017-04-14T20:47:27.723Z,53.50
2017-04-14T20:48:26.725Z,53.70
2017-04-14T20:49:25.768Z,53.80
2017-04-14T20:50:24.769Z,53.90
2017-04-14T20:51:23.779Z,53.90
2017-04-14T20:52:22.796Z,53.90
2017-04-14T20:53:22.544Z,54.00
2017-04-14T20:54:21.561Z,54.00
2017-04-14T20:55:20.637Z,54.00
2017-04-14T20:56:19.671Z,54.10
2017-04-14T20:57:18.669Z,54.40
2017-04-14T20:58:17.672Z,54.20
2017-04-14T20:59:17.409Z,54.30
2017-04-14T21:00:16.428Z,54.20
2017-04-14T21:01:16.431Z,54.60
2017-04-14T21:02:15.490Z,54.40
2017-04-14T21:03:15.218Z,54.50
2017-04-14T21:04:14.314Z,54.50
2017-04-14T21:05:13.312Z,54.60
2017-04-14T21:06:12.381Z,54.60
2017-04-14T21:07:11.455Z,54.50
2017-04-14T21:08:10.467Z,54.70
2017-04-14T21:09:09.468Z,54.70
2017-04-14T21:10:08.451Z,54.80
2017-04-14T21:11:07.477Z,54.90
2017-04-14T21:12:06.504Z,55.10
2017-04-14T21:13:05.550Z,54.90
2017-04-14T21:14:04.567Z,55.00
2017-04-14T21:15:03.568Z,55.10
2017-04-14T21:16:02.539Z,55.20
2017-04-14T21:17:01.565Z,55.30
2017-04-14T21:18:01.343Z,55.30
2017-04-14T21:19:00.341Z,55.30
2017-04-14T21:19:59.350Z,55.40
2017-04-14T21:20:58.367Z,55.80
2017-04-14T21:21:57.523Z,55.40
2017-04-14T21:22:56.524Z,55.90
2017-04-14T21:23:55.524Z,55.60
2017-04-14T21:24:54.564Z,55.80
2017-04-14T21:25:54.308Z,56.00
2017-04-14T21:26:53.324Z,55.90
2017-04-14T21:27:52.385Z,56.00
2017-04-14T21:28:51.392Z,56.10
2017-04-14T21:29:50.437Z,56.00
2017-04-14T21:30:49.438Z,55.90
2017-04-14T21:31:48.476Z,56.10
2017-04-14T21:32:47.459Z,56.30
2017-04-14T21:33:46.444Z,56.50
2017-04-14T21:34:46.193Z,56.50
2017-04-14T21:35:45.213Z,56.50
2017-04-14T21:36:44.961Z,56.70
2017-04-14T21:37:50.809Z,56.70
2017-04-14T21:38:49.801Z,56.90
2017-04-14T21:39:48.826Z,57.10
2017-04-14T21:40:48.594Z,56.80
2017-04-14T21:41:47.608Z,57.00
2017-04-14T21:42:47.350Z,56.30
2017-04-14T21:43:46.400Z,55.80
2017-04-14T21:44:46.161Z,56.00
2017-04-14T21:45:45.259Z,56.10
2017-04-14T21:46:44.325Z,56.30
2017-04-14T21:47:43.416Z,56.20
2017-04-14T21:48:43.215Z,56.20
2017-04-14T21:49:42.979Z,56.40
2017-04-14T21:50:41.983Z,56.50
2017-04-14T21:51:40.989Z,56.40
2017-04-14T21:52:39.984Z,56.50
2017-04-14T21:53:38.988Z,56.60
2017-04-14T21:54:38.206Z,56.60
2017-04-14T21:55:37.222Z,56.70
2017-04-14T21:56:36.240Z,56.70
2017-04-14T21:57:35.265Z,56.80
2017-04-14T21:58:34.265Z,56.70
2017-04-14T21:59:33.252Z,56.80
2017-04-14T22:00:32.265Z,56.90
2017-04-14T22:01:31.307Z,57.10
2017-04-14T22:02:30.393Z,57.10
2017-04-14T22:03:29.388Z,57.20
2017-04-14T22:04:28.462Z,57.30
2017-04-14T22:05:27.445Z,57.40
2017-04-14T22:06:31.786Z,57.50
2017-04-14T22:07:30.815Z,57.60
2017-04-14T22:08:29.841Z,58.00
2017-04-14T22:09:28.834Z,57.70
2017-04-14T22:10:27.820Z,57.80
2017-04-14T22:11:26.808Z,57.90
2017-04-14T22:12:25.786Z,58.00
2017-04-14T22:13:24.970Z,58.10
2017-04-14T22:14:24.020Z,58.30
2017-04-14T22:15:23.034Z,58.50
2017-04-14T22:16:22.028Z,59.30
2017-04-14T22:17:21.022Z,59.20
2017-04-14T22:18:20.035Z,59.30
2017-04-14T22:19:19.028Z,59.50
2017-04-14T22:20:18.057Z,59.40
2017-04-14T22:21:17.075Z,59.90
2017-04-14T22:22:16.819Z,60.00
2017-04-14T22:23:15.985Z,59.40
2017-04-14T22:24:15.554Z,59.40
2017-04-14T22:25:15.327Z,59.40
2017-04-14T22:26:14.335Z,59.30
2017-04-14T22:27:13.343Z,59.50
2017-04-14T22:28:11.560Z,59.50
2017-04-14T22:29:10.548Z,59.50
2017-04-14T22:30:09.585Z,59.50
2017-04-14T22:31:08.629Z,59.30
2017-04-14T22:32:07.696Z,59.50
2017-04-14T22:33:06.693Z,59.60
2017-04-14T22:34:05.733Z,59.60
2017-04-14T22:35:04.749Z,59.70
2017-04-14T22:36:03.713Z,59.70
2017-04-14T22:37:02.710Z,59.90
2017-04-14T22:38:01.693Z,59.80
2017-04-14T22:39:00.737Z,60.00
2017-04-14T22:39:59.759Z,60.10
2017-04-14T22:40:58.849Z,60.00
2017-04-14T22:41:58.585Z,60.10
2017-04-14T22:42:58.458Z,60.10
2017-04-14T22:43:57.449Z,60.00
2017-04-14T22:44:56.439Z,59.90
2017-04-14T22:45:55.453Z,59.90
2017-04-14T22:46:54.460Z,59.90
2017-04-14T22:47:53.482Z,59.90
2017-04-14T22:48:52.483Z,59.90
2017-04-14T22:49:51.479Z,59.90
2017-04-14T22:50:50.478Z,60.80
2017-04-14T22:51:49.477Z,60.00
2017-04-14T22:52:48.469Z,59.80
2017-04-14T22:53:47.463Z,60.00
2017-04-14T22:54:46.473Z,60.10
2017-04-14T22:55:45.526Z,59.90
2017-04-14T22:56:45.261Z,59.90
2017-04-14T22:57:44.251Z,59.80
2017-04-14T22:58:43.263Z,59.80
2017-04-14T22:59:42.332Z,59.70
2017-04-14T23:00:41.328Z,59.90
2017-04-14T23:01:40.398Z,59.90
2017-04-14T23:02:40.157Z,60.00
2017-04-14T23:03:39.250Z,59.80
2017-04-14T23:04:38.255Z,59.80
2017-04-14T23:05:37.253Z,59.70
2017-04-14T23:06:36.262Z,59.50
2017-04-14T23:07:35.278Z,59.60
2017-04-14T23:08:35.033Z,59.60
2017-04-14T23:09:34.023Z,60.10
2017-04-14T23:10:32.988Z,59.60
2017-04-14T23:11:31.982Z,59.40
2017-04-14T23:12:30.974Z,59.40
2017-04-14T23:13:29.954Z,59.30
2017-04-14T23:14:28.959Z,59.50
2017-04-14T23:15:27.984Z,59.50
2017-04-14T23:16:26.973Z,59.60
2017-04-14T23:17:25.974Z,59.50
2017-04-14T23:18:24.968Z,59.70
2017-04-14T23:19:24.021Z,59.50
2017-04-14T23:20:23.045Z,59.50
2017-04-14T23:21:22.068Z,59.40
2017-04-14T23:22:21.107Z,59.50
2017-04-14T23:23:20.259Z,59.50
2017-04-14T23:24:19.290Z,59.60
2017-04-14T23:25:18.299Z,59.60
2017-04-14T23:26:17.296Z,59.60
2017-04-14T23:27:16.305Z,59.60
2017-04-14T23:28:15.349Z,59.50
2017-04-14T23:29:14.383Z,59.50
2017-04-14T23:30:13.384Z,59.70
2017-04-14T23:31:12.377Z,59.70
2017-04-14T23:32:16.037Z,59.70
2017-04-14T23:33:15.089Z,59.60
2017-04-14T23:34:14.849Z,59.60
2017-04-14T23:35:13.873Z,59.70
2017-04-14T23:36:13.657Z,60.60
2017-04-14T23:37:12.902Z,59.70
2017-04-14T23:38:13.266Z,59.70
2017-04-14T23:39:12.305Z,59.90
2017-04-14T23:40:11.330Z,59.90
2017-04-14T23:41:10.341Z,60.00
2017-04-14T23:42:10.145Z,60.20
2017-04-14T23:43:09.893Z,60.30
2017-04-14T23:44:08.943Z,60.00
2017-04-14T23:45:07.976Z,60.80
2017-04-14T23:46:07.015Z,61.10
2017-04-14T23:47:06.079Z,60.00
2017-04-14T23:48:05.883Z,60.00
2017-04-14T23:49:05.641Z,59.90
2017-04-14T23:50:04.701Z,60.20
2017-04-14T23:51:03.749Z,60.00
2017-04-14T23:52:02.743Z,60.10
2017-04-14T23:53:01.718Z,60.10
2017-04-14T23:54:00.697Z,60.30
2017-04-14T23:54:59.679Z,60.40
2017-04-14T23:55:58.712Z,60.40
2017-04-14T23:56:57.728Z,60.70
2017-04-14T23:57:56.728Z,60.80
2017-04-14T23:58:55.745Z,60.80
2017-04-14T23:59:54.789Z,60.80
